Terminal Aerodrome Forecast
Issued by NWS

Current Version | Previous Version | Text Only | Print | Product List | Glossary Off
Versions: 1 2 3 4 5 6 7 8 9 10 11 12 13 14 15 16 17

000
FTUS41 KRLX 192300
TAFCKB
TAF
KCKB 192326Z 2000/2024 02006KT P6SM FEW150 SCT250
     FM200800 00000KT P6SM SKC
     FM201700 13004KT P6SM SKC=

USA.gov is the U.S. government's official web portal to all federal, state and local government web resources and services.